sensor_id;sensor_type;location;lat;lon;timestamp;P1;durP1;ratioP1;P2;durP2;ratioP2
13457;SDS011;6801;53.018;11.560;2023-08-08T00:02:04;2.78;;;1.17;;
13457;SDS011;6801;53.018;11.560;2023-08-08T00:04:31;6.93;;;0.98;;
13457;SDS011;6801;53.018;11.560;2023-08-08T00:06:58;2.88;;;0.90;;
13457;SDS011;6801;53.018;11.560;2023-08-08T00:09:25;4.05;;;0.90;;
13457;SDS011;6801;53.018;11.560;2023-08-08T00:11:52;4.72;;;0.90;;
13457;SDS011;6801;53.018;11.560;2023-08-08T00:14:20;4.65;;;1.15;;
13457;SDS011;6801;53.018;11.560;2023-08-08T00:16:47;2.70;;;0.65;;
13457;SDS011;6801;53.018;11.560;2023-08-08T00:19:14;2.65;;;0.80;;
13457;SDS011;6801;53.018;11.560;2023-08-08T00:21:41;3.97;;;0.80;;
13457;SDS011;6801;53.018;11.560;2023-08-08T00:24:08;3.58;;;0.77;;
13457;SDS011;6801;53.018;11.560;2023-08-08T00:26:36;3.33;;;1.02;;
13457;SDS011;6801;53.018;11.560;2023-08-08T00:29:03;3.60;;;0.90;;
13457;SDS011;6801;53.018;11.560;2023-08-08T00:31:31;7.50;;;0.98;;
13457;SDS011;6801;53.018;11.560;2023-08-08T00:33:58;3.45;;;0.88;;
13457;SDS011;6801;53.018;11.560;2023-08-08T00:36:25;4.05;;;1.10;;
13457;SDS011;6801;53.018;11.560;2023-08-08T00:38:52;4.07;;;0.80;;
13457;SDS011;6801;53.018;11.560;2023-08-08T00:41:19;2.88;;;0.80;;
13457;SDS011;6801;53.018;11.560;2023-08-08T00:43:46;3.20;;;0.95;;
13457;SDS011;6801;53.018;11.560;2023-08-08T00:46:14;4.43;;;0.65;;
13457;SDS011;6801;53.018;11.560;2023-08-08T00:48:43;2.83;;;0.98;;
13457;SDS011;6801;53.018;11.560;2023-08-08T00:51:10;4.18;;;1.10;;
13457;SDS011;6801;53.018;11.560;2023-08-08T00:53:37;4.22;;;1.02;;
13457;SDS011;6801;53.018;11.560;2023-08-08T00:56:04;5.82;;;1.45;;
13457;SDS011;6801;53.018;11.560;2023-08-08T00:58:31;4.13;;;0.73;;
13457;SDS011;6801;53.018;11.560;2023-08-08T01:00:59;3.55;;;1.02;;
13457;SDS011;6801;53.018;11.560;2023-08-08T01:03:26;2.63;;;0.93;;
13457;SDS011;6801;53.018;11.560;2023-08-08T01:05:57;3.88;;;1.33;;
13457;SDS011;6801;53.018;11.560;2023-08-08T01:08:31;2.20;;;0.93;;
13457;SDS011;6801;53.018;11.560;2023-08-08T01:11:03;3.47;;;0.75;;
13457;SDS011;6801;53.018;11.560;2023-08-08T01:13:30;4.65;;;1.15;;
13457;SDS011;6801;53.018;11.560;2023-08-08T01:15:59;2.80;;;0.80;;
13457;SDS011;6801;53.018;11.560;2023-08-08T01:18:30;2.60;;;1.00;;
13457;SDS011;6801;53.018;11.560;2023-08-08T01:21:00;1.48;;;0.75;;
13457;SDS011;6801;53.018;11.560;2023-08-08T01:26:00;3.72;;;0.77;;
13457;SDS011;6801;53.018;11.560;2023-08-08T01:28:28;1.70;;;0.90;;
13457;SDS011;6801;53.018;11.560;2023-08-08T01:30:55;7.43;;;1.50;;
13457;SDS011;6801;53.018;11.560;2023-08-08T01:33:22;3.88;;;0.90;;
13457;SDS011;6801;53.018;11.560;2023-08-08T01:35:50;4.95;;;1.40;;
13457;SDS011;6801;53.018;11.560;2023-08-08T01:38:20;5.00;;;0.93;;
13457;SDS011;6801;53.018;11.560;2023-08-08T01:40:52;8.18;;;1.30;;
13457;SDS011;6801;53.018;11.560;2023-08-08T01:43:25;1.92;;;0.85;;
13457;SDS011;6801;53.018;11.560;2023-08-08T01:45:53;5.93;;;0.98;;
13457;SDS011;6801;53.018;11.560;2023-08-08T01:48:21;2.50;;;0.90;;
13457;SDS011;6801;53.018;11.560;2023-08-08T01:50:48;4.95;;;1.00;;
13457;SDS011;6801;53.018;11.560;2023-08-08T01:53:15;1.88;;;0.90;;
13457;SDS011;6801;53.018;11.560;2023-08-08T01:55:42;2.00;;;0.90;;
13457;SDS011;6801;53.018;11.560;2023-08-08T01:58:10;4.43;;;1.35;;
13457;SDS011;6801;53.018;11.560;2023-08-08T02:00:39;4.85;;;1.23;;
13457;SDS011;6801;53.018;11.560;2023-08-08T02:03:08;3.42;;;0.88;;
13457;SDS011;6801;53.018;11.560;2023-08-08T02:05:36;2.75;;;1.02;;
13457;SDS011;6801;53.018;11.560;2023-08-08T02:08:05;6.68;;;1.05;;
13457;SDS011;6801;53.018;11.560;2023-08-08T02:10:34;2.17;;;1.30;;
13457;SDS011;6801;53.018;11.560;2023-08-08T02:13:01;4.32;;;1.77;;
13457;SDS011;6801;53.018;11.560;2023-08-08T02:15:28;3.38;;;1.08;;
13457;SDS011;6801;53.018;11.560;2023-08-08T02:17:59;3.42;;;0.85;;
13457;SDS011;6801;53.018;11.560;2023-08-08T02:20:26;4.75;;;1.13;;
13457;SDS011;6801;53.018;11.560;2023-08-08T02:22:53;2.03;;;0.93;;
13457;SDS011;6801;53.018;11.560;2023-08-08T02:25:20;3.95;;;0.82;;
13457;SDS011;6801;53.018;11.560;2023-08-08T02:27:47;3.88;;;1.20;;
13457;SDS011;6801;53.018;11.560;2023-08-08T02:30:14;1.38;;;0.88;;
13457;SDS011;6801;53.018;11.560;2023-08-08T02:32:42;4.10;;;0.90;;
13457;SDS011;6801;53.018;11.560;2023-08-08T02:35:11;4.18;;;1.27;;
13457;SDS011;6801;53.018;11.560;2023-08-08T02:37:38;3.70;;;1.15;;
13457;SDS011;6801;53.018;11.560;2023-08-08T02:40:08;5.10;;;1.27;;
13457;SDS011;6801;53.018;11.560;2023-08-08T02:42:35;3.75;;;0.82;;
13457;SDS011;6801;53.018;11.560;2023-08-08T02:45:03;4.68;;;0.85;;
13457;SDS011;6801;53.018;11.560;2023-08-08T02:47:31;3.88;;;1.02;;
13457;SDS011;6801;53.018;11.560;2023-08-08T02:49:58;2.75;;;0.93;;
13457;SDS011;6801;53.018;11.560;2023-08-08T02:52:26;3.33;;;1.23;;
13457;SDS011;6801;53.018;11.560;2023-08-08T02:54:53;3.30;;;1.13;;
13457;SDS011;6801;53.018;11.560;2023-08-08T02:57:20;3.22;;;1.00;;
13457;SDS011;6801;53.018;11.560;2023-08-08T02:59:48;4.90;;;1.20;;
13457;SDS011;6801;53.018;11.560;2023-08-08T03:02:15;4.90;;;1.58;;
13457;SDS011;6801;53.018;11.560;2023-08-08T03:04:42;3.80;;;1.30;;
13457;SDS011;6801;53.018;11.560;2023-08-08T03:07:09;2.85;;;0.80;;
13457;SDS011;6801;53.018;11.560;2023-08-08T03:09:38;2.78;;;0.90;;
13457;SDS011;6801;53.018;11.560;2023-08-08T03:12:06;5.40;;;0.90;;
13457;SDS011;6801;53.018;11.560;2023-08-08T03:14:35;5.03;;;0.80;;
13457;SDS011;6801;53.018;11.560;2023-08-08T03:17:03;3.90;;;1.00;;
13457;SDS011;6801;53.018;11.560;2023-08-08T03:19:31;5.75;;;1.10;;
13457;SDS011;6801;53.018;11.560;2023-08-08T03:22:00;4.65;;;1.30;;
13457;SDS011;6801;53.018;11.560;2023-08-08T03:24:27;3.22;;;1.08;;
13457;SDS011;6801;53.018;11.560;2023-08-08T03:26:55;2.38;;;0.82;;
13457;SDS011;6801;53.018;11.560;2023-08-08T03:29:22;2.90;;;0.85;;
13457;SDS011;6801;53.018;11.560;2023-08-08T03:31:50;2.70;;;1.20;;
13457;SDS011;6801;53.018;11.560;2023-08-08T03:34:17;3.42;;;1.30;;
13457;SDS011;6801;53.018;11.560;2023-08-08T03:36:44;5.32;;;0.93;;
13457;SDS011;6801;53.018;11.560;2023-08-08T03:39:12;4.57;;;1.02;;
13457;SDS011;6801;53.018;11.560;2023-08-08T03:41:39;3.95;;;1.35;;
13457;SDS011;6801;53.018;11.560;2023-08-08T03:44:07;6.63;;;1.30;;
13457;SDS011;6801;53.018;11.560;2023-08-08T03:46:34;4.57;;;1.00;;
13457;SDS011;6801;53.018;11.560;2023-08-08T03:49:01;3.63;;;0.90;;
13457;SDS011;6801;53.018;11.560;2023-08-08T03:51:28;4.53;;;1.23;;
13457;SDS011;6801;53.018;11.560;2023-08-08T03:53:56;5.65;;;0.93;;
13457;SDS011;6801;53.018;11.560;2023-08-08T03:56:23;3.58;;;0.95;;
13457;SDS011;6801;53.018;11.560;2023-08-08T03:58:50;3.60;;;1.52;;
13457;SDS011;6801;53.018;11.560;2023-08-08T04:01:18;5.30;;;0.93;;
13457;SDS011;6801;53.018;11.560;2023-08-08T04:03:46;4.97;;;1.27;;
13457;SDS011;6801;53.018;11.560;2023-08-08T04:06:13;1.23;;;0.63;;
13457;SDS011;6801;53.018;11.560;2023-08-08T04:08:40;4.80;;;0.95;;
13457;SDS011;6801;53.018;11.560;2023-08-08T04:11:07;1.55;;;0.90;;
13457;SDS011;6801;53.018;11.560;2023-08-08T04:13:34;2.83;;;0.90;;
13457;SDS011;6801;53.018;11.560;2023-08-08T04:16:02;2.28;;;0.90;;
13457;SDS011;6801;53.018;11.560;2023-08-08T04:18:31;6.93;;;1.25;;
13457;SDS011;6801;53.018;11.560;2023-08-08T04:20:58;4.38;;;1.10;;
13457;SDS011;6801;53.018;11.560;2023-08-08T04:23:25;2.38;;;1.15;;
13457;SDS011;6801;53.018;11.560;2023-08-08T04:25:52;6.60;;;1.23;;
13457;SDS011;6801;53.018;11.560;2023-08-08T04:28:19;3.05;;;1.05;;
13457;SDS011;6801;53.018;11.560;2023-08-08T04:30:46;1.35;;;0.70;;
13457;SDS011;6801;53.018;11.560;2023-08-08T04:33:13;2.88;;;0.98;;
13457;SDS011;6801;53.018;11.560;2023-08-08T04:35:42;3.03;;;1.10;;
13457;SDS011;6801;53.018;11.560;2023-08-08T04:38:09;3.67;;;0.90;;
13457;SDS011;6801;53.018;11.560;2023-08-08T04:40:36;3.85;;;1.20;;
13457;SDS011;6801;53.018;11.560;2023-08-08T04:43:03;2.92;;;1.10;;
13457;SDS011;6801;53.018;11.560;2023-08-08T04:45:30;5.15;;;0.85;;
13457;SDS011;6801;53.018;11.560;2023-08-08T04:47:57;2.47;;;1.20;;
13457;SDS011;6801;53.018;11.560;2023-08-08T04:50:24;5.15;;;1.40;;
13457;SDS011;6801;53.018;11.560;2023-08-08T04:52:52;2.08;;;1.10;;
13457;SDS011;6801;53.018;11.560;2023-08-08T04:55:19;1.80;;;0.93;;
13457;SDS011;6801;53.018;11.560;2023-08-08T04:57:46;1.80;;;1.10;;
13457;SDS011;6801;53.018;11.560;2023-08-08T05:00:13;3.10;;;1.23;;
13457;SDS011;6801;53.018;11.560;2023-08-08T05:02:41;5.57;;;1.00;;
13457;SDS011;6801;53.018;11.560;2023-08-08T05:05:08;2.28;;;0.82;;
13457;SDS011;6801;53.018;11.560;2023-08-08T05:07:35;5.43;;;1.40;;
13457;SDS011;6801;53.018;11.560;2023-08-08T05:10:05;1.98;;;0.80;;
13457;SDS011;6801;53.018;11.560;2023-08-08T05:12:32;3.92;;;1.10;;
13457;SDS011;6801;53.018;11.560;2023-08-08T05:14:59;5.70;;;1.17;;
13457;SDS011;6801;53.018;11.560;2023-08-08T05:17:26;3.05;;;1.05;;
13457;SDS011;6801;53.018;11.560;2023-08-08T05:19:53;3.58;;;1.17;;
13457;SDS011;6801;53.018;11.560;2023-08-08T05:22:20;2.00;;;0.77;;
13457;SDS011;6801;53.018;11.560;2023-08-08T05:24:47;5.50;;;1.10;;
13457;SDS011;6801;53.018;11.560;2023-08-08T05:27:15;3.95;;;1.02;;
13457;SDS011;6801;53.018;11.560;2023-08-08T05:29:42;5.63;;;1.30;;
13457;SDS011;6801;53.018;11.560;2023-08-08T05:32:09;2.63;;;0.93;;
13457;SDS011;6801;53.018;11.560;2023-08-08T05:34:36;5.55;;;1.02;;
13457;SDS011;6801;53.018;11.560;2023-08-08T05:37:03;3.17;;;1.00;;
13457;SDS011;6801;53.018;11.560;2023-08-08T05:39:31;2.33;;;0.90;;
13457;SDS011;6801;53.018;11.560;2023-08-08T05:41:58;6.40;;;1.38;;
13457;SDS011;6801;53.018;11.560;2023-08-08T05:44:26;4.13;;;1.13;;
13457;SDS011;6801;53.018;11.560;2023-08-08T05:46:54;3.40;;;0.77;;
13457;SDS011;6801;53.018;11.560;2023-08-08T05:49:21;1.88;;;1.23;;
13457;SDS011;6801;53.018;11.560;2023-08-08T05:51:48;2.28;;;0.93;;
13457;SDS011;6801;53.018;11.560;2023-08-08T05:54:15;3.03;;;0.85;;
13457;SDS011;6801;53.018;11.560;2023-08-08T05:56:42;3.65;;;1.38;;
13457;SDS011;6801;53.018;11.560;2023-08-08T05:59:08;4.80;;;1.83;;
13457;SDS011;6801;53.018;11.560;2023-08-08T06:01:37;2.58;;;1.10;;
13457;SDS011;6801;53.018;11.560;2023-08-08T06:04:04;2.30;;;1.13;;
13457;SDS011;6801;53.018;11.560;2023-08-08T06:06:31;2.85;;;0.82;;
13457;SDS011;6801;53.018;11.560;2023-08-08T06:08:58;2.72;;;1.08;;
13457;SDS011;6801;53.018;11.560;2023-08-08T06:11:25;4.63;;;1.02;;
13457;SDS011;6801;53.018;11.560;2023-08-08T06:13:52;3.30;;;1.10;;
13457;SDS011;6801;53.018;11.560;2023-08-08T06:16:20;4.13;;;0.90;;
13457;SDS011;6801;53.018;11.560;2023-08-08T06:18:48;7.57;;;1.30;;
13457;SDS011;6801;53.018;11.560;2023-08-08T06:21:15;3.88;;;0.93;;
13457;SDS011;6801;53.018;11.560;2023-08-08T06:23:42;1.27;;;0.82;;
13457;SDS011;6801;53.018;11.560;2023-08-08T06:26:09;2.10;;;0.85;;
13457;SDS011;6801;53.018;11.560;2023-08-08T06:28:36;1.98;;;1.00;;
13457;SDS011;6801;53.018;11.560;2023-08-08T06:31:03;8.18;;;1.45;;
13457;SDS011;6801;53.018;11.560;2023-08-08T06:33:30;5.07;;;1.13;;
13457;SDS011;6801;53.018;11.560;2023-08-08T06:35:58;3.55;;;1.25;;
13457;SDS011;6801;53.018;11.560;2023-08-08T06:38:25;2.90;;;1.10;;
13457;SDS011;6801;53.018;11.560;2023-08-08T06:40:53;3.63;;;1.30;;
13457;SDS011;6801;53.018;11.560;2023-08-08T06:43:21;3.17;;;1.02;;
13457;SDS011;6801;53.018;11.560;2023-08-08T06:45:48;3.75;;;1.33;;
13457;SDS011;6801;53.018;11.560;2023-08-08T06:48:16;2.72;;;0.93;;
13457;SDS011;6801;53.018;11.560;2023-08-08T06:50:43;4.40;;;1.08;;
13457;SDS011;6801;53.018;11.560;2023-08-08T06:53:11;3.20;;;1.00;;
13457;SDS011;6801;53.018;11.560;2023-08-08T06:55:38;3.47;;;0.93;;
13457;SDS011;6801;53.018;11.560;2023-08-08T06:58:06;3.50;;;1.17;;
13457;SDS011;6801;53.018;11.560;2023-08-08T07:00:33;1.65;;;0.80;;
13457;SDS011;6801;53.018;11.560;2023-08-08T07:03:01;5.90;;;1.42;;
13457;SDS011;6801;53.018;11.560;2023-08-08T07:05:28;5.85;;;1.30;;
13457;SDS011;6801;53.018;11.560;2023-08-08T07:07:55;4.70;;;1.20;;
13457;SDS011;6801;53.018;11.560;2023-08-08T07:10:23;4.55;;;1.27;;
13457;SDS011;6801;53.018;11.560;2023-08-08T07:12:52;4.25;;;1.55;;
13457;SDS011;6801;53.018;11.560;2023-08-08T07:15:19;0.70;;;0.38;;
13457;SDS011;6801;53.018;11.560;2023-08-08T07:17:46;3.58;;;0.73;;
13457;SDS011;6801;53.018;11.560;2023-08-08T07:20:13;5.13;;;1.00;;
13457;SDS011;6801;53.018;11.560;2023-08-08T07:22:41;2.25;;;1.10;;
13457;SDS011;6801;53.018;11.560;2023-08-08T07:25:08;3.80;;;0.95;;
13457;SDS011;6801;53.018;11.560;2023-08-08T07:27:38;7.32;;;1.20;;
13457;SDS011;6801;53.018;11.560;2023-08-08T07:30:05;4.97;;;1.23;;
13457;SDS011;6801;53.018;11.560;2023-08-08T07:32:33;2.08;;;0.70;;
13457;SDS011;6801;53.018;11.560;2023-08-08T07:35:00;5.47;;;1.10;;
13457;SDS011;6801;53.018;11.560;2023-08-08T07:37:31;4.90;;;0.88;;
13457;SDS011;6801;53.018;11.560;2023-08-08T07:39:58;5.90;;;1.20;;
13457;SDS011;6801;53.018;11.560;2023-08-08T07:42:25;3.80;;;1.23;;
13457;SDS011;6801;53.018;11.560;2023-08-08T07:44:54;3.97;;;0.88;;
13457;SDS011;6801;53.018;11.560;2023-08-08T07:47:21;2.47;;;1.10;;
13457;SDS011;6801;53.018;11.560;2023-08-08T07:49:48;5.07;;;1.20;;
13457;SDS011;6801;53.018;11.560;2023-08-08T07:52:15;1.38;;;0.68;;
13457;SDS011;6801;53.018;11.560;2023-08-08T07:54:42;6.03;;;0.98;;
13457;SDS011;6801;53.018;11.560;2023-08-08T07:57:09;3.60;;;0.82;;
13457;SDS011;6801;53.018;11.560;2023-08-08T07:59:37;3.00;;;0.80;;
13457;SDS011;6801;53.018;11.560;2023-08-08T08:02:05;1.75;;;0.80;;
13457;SDS011;6801;53.018;11.560;2023-08-08T08:04:33;1.63;;;0.80;;
13457;SDS011;6801;53.018;11.560;2023-08-08T08:07:00;2.85;;;0.68;;
13457;SDS011;6801;53.018;11.560;2023-08-08T08:09:27;2.53;;;0.80;;
13457;SDS011;6801;53.018;11.560;2023-08-08T08:11:54;3.53;;;0.90;;
13457;SDS011;6801;53.018;11.560;2023-08-08T08:14:21;3.88;;;1.13;;
13457;SDS011;6801;53.018;11.560;2023-08-08T08:16:49;4.22;;;0.57;;
13457;SDS011;6801;53.018;11.560;2023-08-08T08:19:18;5.45;;;0.90;;
13457;SDS011;6801;53.018;11.560;2023-08-08T08:21:45;1.70;;;0.50;;
13457;SDS011;6801;53.018;11.560;2023-08-08T08:24:12;3.45;;;1.02;;
13457;SDS011;6801;53.018;11.560;2023-08-08T08:26:39;7.22;;;0.80;;
13457;SDS011;6801;53.018;11.560;2023-08-08T08:29:06;1.35;;;0.43;;
13457;SDS011;6801;53.018;11.560;2023-08-08T08:31:33;3.35;;;0.60;;
13457;SDS011;6801;53.018;11.560;2023-08-08T08:34:02;3.20;;;0.82;;
13457;SDS011;6801;53.018;11.560;2023-08-08T08:36:31;5.07;;;0.70;;
13457;SDS011;6801;53.018;11.560;2023-08-08T08:38:58;5.00;;;1.15;;
13457;SDS011;6801;53.018;11.560;2023-08-08T08:41:25;1.95;;;0.75;;
13457;SDS011;6801;53.018;11.560;2023-08-08T08:43:54;2.25;;;0.40;;
13457;SDS011;6801;53.018;11.560;2023-08-08T08:46:21;2.47;;;0.60;;
13457;SDS011;6801;53.018;11.560;2023-08-08T08:48:51;1.23;;;0.70;;
13457;SDS011;6801;53.018;11.560;2023-08-08T08:51:21;6.53;;;1.00;;
13457;SDS011;6801;53.018;11.560;2023-08-08T08:53:49;2.35;;;0.50;;
13457;SDS011;6801;53.018;11.560;2023-08-08T08:56:16;1.42;;;0.82;;
13457;SDS011;6801;53.018;11.560;2023-08-08T08:58:44;7.88;;;0.80;;
13457;SDS011;6801;53.018;11.560;2023-08-08T09:01:11;2.60;;;0.50;;
13457;SDS011;6801;53.018;11.560;2023-08-08T09:03:38;4.72;;;0.88;;
13457;SDS011;6801;53.018;11.560;2023-08-08T09:06:07;2.97;;;0.75;;
13457;SDS011;6801;53.018;11.560;2023-08-08T09:08:34;4.20;;;0.70;;
13457;SDS011;6801;53.018;11.560;2023-08-08T09:11:03;1.50;;;0.70;;
13457;SDS011;6801;53.018;11.560;2023-08-08T09:13:33;2.40;;;0.80;;
13457;SDS011;6801;53.018;11.560;2023-08-08T09:16:04;2.15;;;0.98;;
13457;SDS011;6801;53.018;11.560;2023-08-08T09:18:31;4.82;;;1.40;;
13457;SDS011;6801;53.018;11.560;2023-08-08T09:20:58;2.58;;;0.80;;
13457;SDS011;6801;53.018;11.560;2023-08-08T09:23:25;3.00;;;0.50;;
13457;SDS011;6801;53.018;11.560;2023-08-08T09:25:52;3.55;;;0.88;;
13457;SDS011;6801;53.018;11.560;2023-08-08T09:28:21;3.38;;;0.77;;
13457;SDS011;6801;53.018;11.560;2023-08-08T09:30:48;2.90;;;0.80;;
13457;SDS011;6801;53.018;11.560;2023-08-08T09:33:17;3.17;;;0.70;;
13457;SDS011;6801;53.018;11.560;2023-08-08T09:35:44;3.78;;;0.63;;
13457;SDS011;6801;53.018;11.560;2023-08-08T09:38:11;3.70;;;0.63;;
13457;SDS011;6801;53.018;11.560;2023-08-08T09:40:38;4.88;;;0.90;;
13457;SDS011;6801;53.018;11.560;2023-08-08T09:43:06;2.13;;;0.32;;
13457;SDS011;6801;53.018;11.560;2023-08-08T09:45:39;2.90;;;0.93;;
13457;SDS011;6801;53.018;11.560;2023-08-08T09:48:08;3.05;;;0.65;;
13457;SDS011;6801;53.018;11.560;2023-08-08T09:50:35;2.63;;;0.70;;
13457;SDS011;6801;53.018;11.560;2023-08-08T09:53:02;1.65;;;0.50;;
13457;SDS011;6801;53.018;11.560;2023-08-08T09:55:29;3.13;;;0.98;;
13457;SDS011;6801;53.018;11.560;2023-08-08T09:57:58;0.93;;;0.60;;
13457;SDS011;6801;53.018;11.560;2023-08-08T10:00:25;1.77;;;0.40;;
13457;SDS011;6801;53.018;11.560;2023-08-08T10:02:56;3.80;;;0.80;;
13457;SDS011;6801;53.018;11.560;2023-08-08T10:05:25;1.40;;;0.60;;
13457;SDS011;6801;53.018;11.560;2023-08-08T10:07:55;4.78;;;0.70;;
13457;SDS011;6801;53.018;11.560;2023-08-08T10:10:23;2.00;;;0.65;;
13457;SDS011;6801;53.018;11.560;2023-08-08T10:12:51;4.05;;;0.60;;
13457;SDS011;6801;53.018;11.560;2023-08-08T10:15:19;5.38;;;1.00;;
13457;SDS011;6801;53.018;11.560;2023-08-08T10:17:52;6.43;;;0.90;;
13457;SDS011;6801;53.018;11.560;2023-08-08T10:20:23;1.48;;;0.65;;
13457;SDS011;6801;53.018;11.560;2023-08-08T10:22:51;2.67;;;0.80;;
13457;SDS011;6801;53.018;11.560;2023-08-08T10:25:22;4.50;;;0.70;;
13457;SDS011;6801;53.018;11.560;2023-08-08T10:28:01;1.70;;;0.60;;
13457;SDS011;6801;53.018;11.560;2023-08-08T10:30:29;2.15;;;0.65;;
13457;SDS011;6801;53.018;11.560;2023-08-08T10:32:56;2.47;;;0.75;;
13457;SDS011;6801;53.018;11.560;2023-08-08T10:35:34;1.40;;;0.60;;
13457;SDS011;6801;53.018;11.560;2023-08-08T10:38:07;3.35;;;1.02;;
13457;SDS011;6801;53.018;11.560;2023-08-08T10:40:35;2.17;;;0.60;;
13457;SDS011;6801;53.018;11.560;2023-08-08T10:43:09;2.42;;;0.60;;
13457;SDS011;6801;53.018;11.560;2023-08-08T10:45:40;3.10;;;0.63;;
13457;SDS011;6801;53.018;11.560;2023-08-08T10:48:08;1.52;;;0.45;;
13457;SDS011;6801;53.018;11.560;2023-08-08T10:50:39;3.42;;;0.52;;
13457;SDS011;6801;53.018;11.560;2023-08-08T10:53:08;1.75;;;0.47;;
13457;SDS011;6801;53.018;11.560;2023-08-08T10:55:35;2.67;;;0.50;;
13457;SDS011;6801;53.018;11.560;2023-08-08T10:58:04;1.88;;;0.50;;
13457;SDS011;6801;53.018;11.560;2023-08-08T11:00:33;3.60;;;0.60;;
13457;SDS011;6801;53.018;11.560;2023-08-08T11:03:01;1.23;;;0.40;;
13457;SDS011;6801;53.018;11.560;2023-08-08T11:05:30;2.17;;;0.40;;
13457;SDS011;6801;53.018;11.560;2023-08-08T11:08:00;2.40;;;0.60;;
13457;SDS011;6801;53.018;11.560;2023-08-08T11:10:29;1.60;;;0.60;;
13457;SDS011;6801;53.018;11.560;2023-08-08T11:12:57;1.63;;;0.45;;
13457;SDS011;6801;53.018;11.560;2023-08-08T11:15:25;2.30;;;0.50;;
13457;SDS011;6801;53.018;11.560;2023-08-08T11:17:52;7.97;;;1.00;;
13457;SDS011;6801;53.018;11.560;2023-08-08T11:20:20;2.25;;;0.70;;
13457;SDS011;6801;53.018;11.560;2023-08-08T11:22:51;1.50;;;0.40;;
13457;SDS011;6801;53.018;11.560;2023-08-08T11:25:21;4.18;;;0.73;;
13457;SDS011;6801;53.018;11.560;2023-08-08T11:27:49;2.72;;;0.70;;
13457;SDS011;6801;53.018;11.560;2023-08-08T11:30:17;4.00;;;1.02;;
13457;SDS011;6801;53.018;11.560;2023-08-08T11:32:45;1.48;;;0.50;;
13457;SDS011;6801;53.018;11.560;2023-08-08T11:35:15;1.77;;;0.60;;
13457;SDS011;6801;53.018;11.560;2023-08-08T11:37:43;5.35;;;0.80;;
13457;SDS011;6801;53.018;11.560;2023-08-08T11:40:11;5.07;;;0.68;;
13457;SDS011;6801;53.018;11.560;2023-08-08T11:42:40;1.35;;;0.60;;
13457;SDS011;6801;53.018;11.560;2023-08-08T11:45:08;4.72;;;0.70;;
13457;SDS011;6801;53.018;11.560;2023-08-08T11:47:37;3.33;;;0.60;;
13457;SDS011;6801;53.018;11.560;2023-08-08T11:50:05;2.13;;;0.60;;
13457;SDS011;6801;53.018;11.560;2023-08-08T11:52:34;2.00;;;0.47;;
13457;SDS011;6801;53.018;11.560;2023-08-08T11:55:05;3.78;;;0.77;;
13457;SDS011;6801;53.018;11.560;2023-08-08T11:57:33;2.17;;;0.40;;
13457;SDS011;6801;53.018;11.560;2023-08-08T12:00:04;1.38;;;0.35;;
13457;SDS011;6801;53.018;11.560;2023-08-08T12:02:38;1.45;;;0.28;;
13457;SDS011;6801;53.018;11.560;2023-08-08T12:05:06;0.38;;;0.10;;
13457;SDS011;6801;53.018;11.560;2023-08-08T12:07:35;0.77;;;0.20;;
13457;SDS011;6801;53.018;11.560;2023-08-08T12:10:04;0.55;;;0.15;;
13457;SDS011;6801;53.018;11.560;2023-08-08T12:12:31;1.10;;;0.22;;
13457;SDS011;6801;53.018;11.560;2023-08-08T12:15:05;0.20;;;0.20;;
13457;SDS011;6801;53.018;11.560;2023-08-08T12:17:33;2.85;;;0.45;;
13457;SDS011;6801;53.018;11.560;2023-08-08T12:20:01;1.85;;;0.40;;
13457;SDS011;6801;53.018;11.560;2023-08-08T12:22:30;1.95;;;0.40;;
13457;SDS011;6801;53.018;11.560;2023-08-08T12:24:57;2.83;;;0.40;;
13457;SDS011;6801;53.018;11.560;2023-08-08T12:27:24;2.42;;;0.30;;
13457;SDS011;6801;53.018;11.560;2023-08-08T12:29:52;1.02;;;0.38;;
13457;SDS011;6801;53.018;11.560;2023-08-08T12:32:20;1.55;;;0.40;;
13457;SDS011;6801;53.018;11.560;2023-08-08T12:34:48;0.70;;;0.32;;
13457;SDS011;6801;53.018;11.560;2023-08-08T12:37:16;2.03;;;0.47;;
13457;SDS011;6801;53.018;11.560;2023-08-08T12:39:43;0.70;;;0.30;;
13457;SDS011;6801;53.018;11.560;2023-08-08T12:42:10;1.20;;;0.40;;
13457;SDS011;6801;53.018;11.560;2023-08-08T12:44:37;1.58;;;0.50;;
13457;SDS011;6801;53.018;11.560;2023-08-08T12:47:04;1.77;;;0.45;;
13457;SDS011;6801;53.018;11.560;2023-08-08T12:49:33;2.25;;;0.40;;
13457;SDS011;6801;53.018;11.560;2023-08-08T12:52:00;0.77;;;0.22;;
13457;SDS011;6801;53.018;11.560;2023-08-08T12:54:26;0.82;;;0.40;;
13457;SDS011;6801;53.018;11.560;2023-08-08T12:56:53;0.47;;;0.20;;
13457;SDS011;6801;53.018;11.560;2023-08-08T12:59:21;2.13;;;0.40;;
13457;SDS011;6801;53.018;11.560;2023-08-08T13:01:48;3.20;;;0.45;;
13457;SDS011;6801;53.018;11.560;2023-08-08T13:04:15;0.73;;;0.30;;
13457;SDS011;6801;53.018;11.560;2023-08-08T13:06:43;1.48;;;0.45;;
13457;SDS011;6801;53.018;11.560;2023-08-08T13:09:10;2.17;;;0.50;;
13457;SDS011;6801;53.018;11.560;2023-08-08T13:11:37;1.15;;;0.40;;
13457;SDS011;6801;53.018;11.560;2023-08-08T13:14:04;0.82;;;0.32;;
13457;SDS011;6801;53.018;11.560;2023-08-08T13:16:31;1.02;;;0.30;;
13457;SDS011;6801;53.018;11.560;2023-08-08T13:18:58;2.35;;;0.47;;
13457;SDS011;6801;53.018;11.560;2023-08-08T13:21:26;1.00;;;0.35;;
13457;SDS011;6801;53.018;11.560;2023-08-08T13:23:54;3.05;;;0.30;;
13457;SDS011;6801;53.018;11.560;2023-08-08T13:26:21;3.22;;;0.43;;
13457;SDS011;6801;53.018;11.560;2023-08-08T13:28:48;0.77;;;0.28;;
13457;SDS011;6801;53.018;11.560;2023-08-08T13:31:16;3.45;;;0.57;;
13457;SDS011;6801;53.018;11.560;2023-08-08T13:33:43;2.80;;;0.47;;
13457;SDS011;6801;53.018;11.560;2023-08-08T13:36:10;2.17;;;0.30;;
13457;SDS011;6801;53.018;11.560;2023-08-08T13:38:37;1.15;;;0.30;;
13457;SDS011;6801;53.018;11.560;2023-08-08T13:41:05;0.95;;;0.40;;
13457;SDS011;6801;53.018;11.560;2023-08-08T13:43:32;1.15;;;0.20;;
13457;SDS011;6801;53.018;11.560;2023-08-08T13:45:59;0.70;;;0.28;;
13457;SDS011;6801;53.018;11.560;2023-08-08T13:48:27;0.68;;;0.30;;
13457;SDS011;6801;53.018;11.560;2023-08-08T13:50:55;1.75;;;0.50;;
13457;SDS011;6801;53.018;11.560;2023-08-08T13:53:25;2.00;;;0.40;;
13457;SDS011;6801;53.018;11.560;2023-08-08T13:55:52;1.17;;;0.20;;
13457;SDS011;6801;53.018;11.560;2023-08-08T13:58:21;0.32;;;0.20;;
13457;SDS011;6801;53.018;11.560;2023-08-08T14:00:48;3.47;;;0.30;;
13457;SDS011;6801;53.018;11.560;2023-08-08T14:03:15;1.15;;;0.30;;
13457;SDS011;6801;53.018;11.560;2023-08-08T14:05:42;1.48;;;0.30;;
13457;SDS011;6801;53.018;11.560;2023-08-08T14:08:09;0.98;;;0.30;;
13457;SDS011;6801;53.018;11.560;2023-08-08T14:10:36;1.70;;;0.50;;
13457;SDS011;6801;53.018;11.560;2023-08-08T14:13:04;0.82;;;0.30;;
13457;SDS011;6801;53.018;11.560;2023-08-08T14:15:32;2.28;;;0.25;;
13457;SDS011;6801;53.018;11.560;2023-08-08T14:18:05;0.70;;;0.30;;
13457;SDS011;6801;53.018;11.560;2023-08-08T14:20:33;0.65;;;0.30;;
13457;SDS011;6801;53.018;11.560;2023-08-08T14:23:00;1.50;;;0.40;;
13457;SDS011;6801;53.018;11.560;2023-08-08T14:25:27;2.05;;;0.40;;
13457;SDS011;6801;53.018;11.560;2023-08-08T14:27:54;3.45;;;0.60;;
13457;SDS011;6801;53.018;11.560;2023-08-08T14:30:22;1.50;;;0.30;;
13457;SDS011;6801;53.018;11.560;2023-08-08T14:32:52;3.20;;;0.32;;
13457;SDS011;6801;53.018;11.560;2023-08-08T14:35:19;0.88;;;0.28;;
13457;SDS011;6801;53.018;11.560;2023-08-08T14:37:46;1.48;;;0.40;;
13457;SDS011;6801;53.018;11.560;2023-08-08T14:40:13;1.48;;;0.30;;
13457;SDS011;6801;53.018;11.560;2023-08-08T14:42:40;1.00;;;0.20;;
13457;SDS011;6801;53.018;11.560;2023-08-08T14:45:08;2.45;;;0.50;;
13457;SDS011;6801;53.018;11.560;2023-08-08T14:47:35;2.58;;;0.30;;
13457;SDS011;6801;53.018;11.560;2023-08-08T14:50:05;3.95;;;0.60;;
13457;SDS011;6801;53.018;11.560;2023-08-08T14:52:33;1.27;;;0.25;;
13457;SDS011;6801;53.018;11.560;2023-08-08T14:55:00;0.60;;;0.25;;